sensor_id;sensor_type;location;lat;lon;timestamp;P1;durP1;ratioP1;P2;durP2;ratioP2
10902;SDS011;5504;47.312;11.060;2023-08-24T00:00:38;9.00;;;8.10;;
10902;SDS011;5504;47.312;11.060;2023-08-24T00:03:08;10.30;;;9.20;;
10902;SDS011;5504;47.312;11.060;2023-08-24T00:05:34;10.45;;;9.35;;
10902;SDS011;5504;47.312;11.060;2023-08-24T00:08:02;12.07;;;9.65;;
10902;SDS011;5504;47.312;11.060;2023-08-24T00:10:31;10.93;;;9.82;;
10902;SDS011;5504;47.312;11.060;2023-08-24T00:12:57;10.93;;;8.98;;
10902;SDS011;5504;47.312;11.060;2023-08-24T00:15:23;9.48;;;8.55;;
10902;SDS011;5504;47.312;11.060;2023-08-24T00:17:49;9.57;;;8.60;;
10902;SDS011;5504;47.312;11.060;2023-08-24T00:20:15;10.65;;;9.18;;
10902;SDS011;5504;47.312;11.060;2023-08-24T00:22:42;10.23;;;9.27;;
10902;SDS011;5504;47.312;11.060;2023-08-24T00:25:08;9.48;;;8.48;;
10902;SDS011;5504;47.312;11.060;2023-08-24T00:27:35;9.85;;;8.77;;
10902;SDS011;5504;47.312;11.060;2023-08-24T00:30:05;10.27;;;9.27;;
10902;SDS011;5504;47.312;11.060;2023-08-24T00:32:35;10.65;;;9.38;;
10902;SDS011;5504;47.312;11.060;2023-08-24T00:35:02;11.60;;;9.70;;
10902;SDS011;5504;47.312;11.060;2023-08-24T00:37:29;10.52;;;9.45;;
10902;SDS011;5504;47.312;11.060;2023-08-24T00:39:55;10.23;;;8.90;;
10902;SDS011;5504;47.312;11.060;2023-08-24T00:42:21;11.43;;;9.32;;
10902;SDS011;5504;47.312;11.060;2023-08-24T00:44:47;10.13;;;9.13;;
10902;SDS011;5504;47.312;11.060;2023-08-24T00:47:14;11.65;;;9.73;;
10902;SDS011;5504;47.312;11.060;2023-08-24T00:49:41;10.15;;;9.15;;
10902;SDS011;5504;47.312;11.060;2023-08-24T00:52:06;12.88;;;9.48;;
10902;SDS011;5504;47.312;11.060;2023-08-24T00:54:33;11.00;;;9.43;;
10902;SDS011;5504;47.312;11.060;2023-08-24T00:56:59;10.77;;;9.38;;
10902;SDS011;5504;47.312;11.060;2023-08-24T00:59:25;10.57;;;9.20;;
10902;SDS011;5504;47.312;11.060;2023-08-24T01:01:51;10.27;;;9.20;;
10902;SDS011;5504;47.312;11.060;2023-08-24T01:04:17;10.40;;;9.15;;
10902;SDS011;5504;47.312;11.060;2023-08-24T01:06:43;10.70;;;9.50;;
10902;SDS011;5504;47.312;11.060;2023-08-24T01:09:09;14.23;;;10.02;;
10902;SDS011;5504;47.312;11.060;2023-08-24T01:17:44;12.00;;;9.60;;
10902;SDS011;5504;47.312;11.060;2023-08-24T01:20:12;10.95;;;9.68;;
10902;SDS011;5504;47.312;11.060;2023-08-24T01:22:49;11.68;;;9.40;;
10902;SDS011;5504;47.312;11.060;2023-08-24T01:27:54;10.50;;;9.40;;
10902;SDS011;5504;47.312;11.060;2023-08-24T01:30:20;10.55;;;9.25;;
10902;SDS011;5504;47.312;11.060;2023-08-24T01:32:46;11.73;;;9.68;;
10902;SDS011;5504;47.312;11.060;2023-08-24T01:35:12;12.45;;;9.98;;
10902;SDS011;5504;47.312;11.060;2023-08-24T01:37:37;11.20;;;9.88;;
10902;SDS011;5504;47.312;11.060;2023-08-24T01:40:05;11.00;;;9.90;;
10902;SDS011;5504;47.312;11.060;2023-08-24T01:42:37;10.45;;;9.45;;
10902;SDS011;5504;47.312;11.060;2023-08-24T01:45:24;10.65;;;9.55;;
10902;SDS011;5504;47.312;11.060;2023-08-24T01:47:55;11.27;;;10.07;;
10902;SDS011;5504;47.312;11.060;2023-08-24T01:50:21;11.32;;;9.95;;
10902;SDS011;5504;47.312;11.060;2023-08-24T01:52:48;11.10;;;10.00;;
10902;SDS011;5504;47.312;11.060;2023-08-24T01:55:17;10.15;;;9.15;;
10902;SDS011;5504;47.312;11.060;2023-08-24T01:57:43;12.32;;;9.18;;
10902;SDS011;5504;47.312;11.060;2023-08-24T02:00:09;10.63;;;9.52;;
10902;SDS011;5504;47.312;11.060;2023-08-24T02:02:35;10.70;;;9.60;;
10902;SDS011;5504;47.312;11.060;2023-08-24T02:05:04;11.48;;;10.32;;
10902;SDS011;5504;47.312;11.060;2023-08-24T02:07:30;10.60;;;9.50;;
10902;SDS011;5504;47.312;11.060;2023-08-24T02:09:56;12.25;;;9.35;;
10902;SDS011;5504;47.312;11.060;2023-08-24T02:12:21;11.15;;;9.85;;
10902;SDS011;5504;47.312;11.060;2023-08-24T02:14:47;10.85;;;9.55;;
10902;SDS011;5504;47.312;11.060;2023-08-24T02:17:13;10.10;;;9.10;;
10902;SDS011;5504;47.312;11.060;2023-08-24T02:19:39;10.60;;;9.50;;
10902;SDS011;5504;47.312;11.060;2023-08-24T02:22:06;11.52;;;10.15;;
10902;SDS011;5504;47.312;11.060;2023-08-24T02:24:32;11.07;;;9.32;;
10902;SDS011;5504;47.312;11.060;2023-08-24T02:26:58;11.20;;;9.27;;
10902;SDS011;5504;47.312;11.060;2023-08-24T02:29:24;10.85;;;9.20;;
10902;SDS011;5504;47.312;11.060;2023-08-24T02:31:50;10.05;;;9.02;;
10902;SDS011;5504;47.312;11.060;2023-08-24T02:34:16;11.60;;;9.50;;
10902;SDS011;5504;47.312;11.060;2023-08-24T02:36:42;9.75;;;8.80;;
10902;SDS011;5504;47.312;11.060;2023-08-24T02:39:08;10.07;;;9.00;;
10902;SDS011;5504;47.312;11.060;2023-08-24T02:41:34;10.77;;;8.98;;
10902;SDS011;5504;47.312;11.060;2023-08-24T02:44:00;11.80;;;9.70;;
10902;SDS011;5504;47.312;11.060;2023-08-24T02:46:26;10.38;;;9.25;;
10902;SDS011;5504;47.312;11.060;2023-08-24T02:48:52;11.23;;;10.00;;
10902;SDS011;5504;47.312;11.060;2023-08-24T02:51:20;12.68;;;9.63;;
10902;SDS011;5504;47.312;11.060;2023-08-24T02:53:46;10.80;;;9.40;;
10902;SDS011;5504;47.312;11.060;2023-08-24T02:56:12;13.57;;;9.52;;
10902;SDS011;5504;47.312;11.060;2023-08-24T02:58:38;12.10;;;9.18;;
10902;SDS011;5504;47.312;11.060;2023-08-24T03:01:04;11.05;;;9.57;;
10902;SDS011;5504;47.312;11.060;2023-08-24T03:03:33;11.80;;;9.18;;
10902;SDS011;5504;47.312;11.060;2023-08-24T03:06:03;10.18;;;9.07;;
10902;SDS011;5504;47.312;11.060;2023-08-24T03:08:30;11.05;;;9.30;;
10902;SDS011;5504;47.312;11.060;2023-08-24T03:10:57;11.82;;;9.48;;
10902;SDS011;5504;47.312;11.060;2023-08-24T03:13:23;12.18;;;9.57;;
10902;SDS011;5504;47.312;11.060;2023-08-24T03:15:49;11.20;;;9.35;;
10902;SDS011;5504;47.312;11.060;2023-08-24T03:18:15;9.68;;;8.50;;
10902;SDS011;5504;47.312;11.060;2023-08-24T03:20:41;10.43;;;8.77;;
10902;SDS011;5504;47.312;11.060;2023-08-24T03:23:08;9.98;;;8.93;;
10902;SDS011;5504;47.312;11.060;2023-08-24T03:25:37;10.25;;;9.18;;
10902;SDS011;5504;47.312;11.060;2023-08-24T03:28:04;10.52;;;8.90;;
10902;SDS011;5504;47.312;11.060;2023-08-24T03:30:30;14.40;;;9.30;;
10902;SDS011;5504;47.312;11.060;2023-08-24T03:32:56;10.85;;;9.75;;
10902;SDS011;5504;47.312;11.060;2023-08-24T03:35:24;10.50;;;8.98;;
10902;SDS011;5504;47.312;11.060;2023-08-24T03:37:50;12.10;;;9.68;;
10902;SDS011;5504;47.312;11.060;2023-08-24T03:40:16;11.63;;;9.15;;
10902;SDS011;5504;47.312;11.060;2023-08-24T03:42:42;11.35;;;10.10;;
10902;SDS011;5504;47.312;11.060;2023-08-24T03:45:07;10.98;;;9.38;;
10902;SDS011;5504;47.312;11.060;2023-08-24T03:47:33;11.68;;;9.90;;
10902;SDS011;5504;47.312;11.060;2023-08-24T03:49:59;10.52;;;9.45;;
10902;SDS011;5504;47.312;11.060;2023-08-24T03:52:25;11.10;;;9.55;;
10902;SDS011;5504;47.312;11.060;2023-08-24T03:54:50;12.73;;;10.48;;
10902;SDS011;5504;47.312;11.060;2023-08-24T03:57:16;15.38;;;10.70;;
10902;SDS011;5504;47.312;11.060;2023-08-24T03:59:42;12.50;;;11.20;;
10902;SDS011;5504;47.312;11.060;2023-08-24T04:02:08;11.40;;;10.20;;
10902;SDS011;5504;47.312;11.060;2023-08-24T04:04:33;12.05;;;10.82;;
10902;SDS011;5504;47.312;11.060;2023-08-24T04:06:59;12.98;;;11.23;;
10902;SDS011;5504;47.312;11.060;2023-08-24T04:09:25;13.40;;;11.90;;
10902;SDS011;5504;47.312;11.060;2023-08-24T04:11:51;14.00;;;11.82;;
10902;SDS011;5504;47.312;11.060;2023-08-24T04:14:16;14.80;;;11.32;;
10902;SDS011;5504;47.312;11.060;2023-08-24T04:16:42;13.93;;;11.18;;
10902;SDS011;5504;47.312;11.060;2023-08-24T04:19:08;13.23;;;11.10;;
10902;SDS011;5504;47.312;11.060;2023-08-24T04:21:34;12.38;;;11.05;;
10902;SDS011;5504;47.312;11.060;2023-08-24T04:23:59;13.48;;;10.10;;
10902;SDS011;5504;47.312;11.060;2023-08-24T04:26:25;13.63;;;9.93;;
10902;SDS011;5504;47.312;11.060;2023-08-24T04:28:51;13.85;;;10.35;;
10902;SDS011;5504;47.312;11.060;2023-08-24T04:31:17;12.75;;;9.93;;
10902;SDS011;5504;47.312;11.060;2023-08-24T04:33:42;11.82;;;10.45;;
10902;SDS011;5504;47.312;11.060;2023-08-24T04:36:08;13.63;;;10.98;;
10902;SDS011;5504;47.312;11.060;2023-08-24T04:38:34;12.30;;;10.48;;
10902;SDS011;5504;47.312;11.060;2023-08-24T04:40:59;12.90;;;10.73;;
10902;SDS011;5504;47.312;11.060;2023-08-24T04:43:25;11.52;;;10.27;;
10902;SDS011;5504;47.312;11.060;2023-08-24T04:45:54;12.88;;;10.45;;
10902;SDS011;5504;47.312;11.060;2023-08-24T04:48:20;12.37;;;10.27;;
10902;SDS011;5504;47.312;11.060;2023-08-24T04:50:47;12.15;;;9.80;;
10902;SDS011;5504;47.312;11.060;2023-08-24T04:53:15;15.55;;;10.43;;
10902;SDS011;5504;47.312;11.060;2023-08-24T04:55:42;13.85;;;10.43;;
10902;SDS011;5504;47.312;11.060;2023-08-24T04:58:08;13.85;;;9.70;;
10902;SDS011;5504;47.312;11.060;2023-08-24T05:00:34;11.98;;;10.60;;
10902;SDS011;5504;47.312;11.060;2023-08-24T05:03:04;11.50;;;10.02;;
10902;SDS011;5504;47.312;11.060;2023-08-24T05:05:30;15.02;;;9.65;;
10902;SDS011;5504;47.312;11.060;2023-08-24T05:08:00;12.18;;;9.85;;
10902;SDS011;5504;47.312;11.060;2023-08-24T05:10:29;11.45;;;9.50;;
10902;SDS011;5504;47.312;11.060;2023-08-24T05:12:56;11.52;;;9.05;;
10902;SDS011;5504;47.312;11.060;2023-08-24T05:15:22;10.97;;;9.33;;
10902;SDS011;5504;47.312;11.060;2023-08-24T05:17:47;12.02;;;9.80;;
10902;SDS011;5504;47.312;11.060;2023-08-24T05:20:13;11.52;;;9.70;;
10902;SDS011;5504;47.312;11.060;2023-08-24T05:22:39;13.63;;;10.55;;
10902;SDS011;5504;47.312;11.060;2023-08-24T05:25:05;11.95;;;9.32;;
10902;SDS011;5504;47.312;11.060;2023-08-24T05:27:32;13.52;;;9.63;;
10902;SDS011;5504;47.312;11.060;2023-08-24T05:29:58;11.65;;;9.27;;
10902;SDS011;5504;47.312;11.060;2023-08-24T05:32:23;13.48;;;10.00;;
10902;SDS011;5504;47.312;11.060;2023-08-24T05:34:49;12.02;;;9.55;;
10902;SDS011;5504;47.312;11.060;2023-08-24T05:37:15;13.10;;;9.40;;
10902;SDS011;5504;47.312;11.060;2023-08-24T05:39:41;12.45;;;10.30;;
10902;SDS011;5504;47.312;11.060;2023-08-24T05:42:08;14.07;;;10.10;;
10902;SDS011;5504;47.312;11.060;2023-08-24T05:44:34;12.77;;;10.10;;
10902;SDS011;5504;47.312;11.060;2023-08-24T05:47:00;14.75;;;9.38;;
10902;SDS011;5504;47.312;11.060;2023-08-24T05:49:25;10.52;;;9.40;;
10902;SDS011;5504;47.312;11.060;2023-08-24T05:51:51;11.25;;;10.00;;
10902;SDS011;5504;47.312;11.060;2023-08-24T05:54:17;13.38;;;10.10;;
10902;SDS011;5504;47.312;11.060;2023-08-24T05:56:44;12.25;;;9.52;;
10902;SDS011;5504;47.312;11.060;2023-08-24T05:59:10;11.80;;;9.15;;
10902;SDS011;5504;47.312;11.060;2023-08-24T06:01:35;12.52;;;9.63;;
10902;SDS011;5504;47.312;11.060;2023-08-24T06:04:04;11.70;;;9.02;;
10902;SDS011;5504;47.312;11.060;2023-08-24T06:06:33;13.02;;;9.68;;
10902;SDS011;5504;47.312;11.060;2023-08-24T06:08:59;12.02;;;9.15;;
10902;SDS011;5504;47.312;11.060;2023-08-24T06:11:24;12.57;;;9.35;;
10902;SDS011;5504;47.312;11.060;2023-08-24T06:13:50;10.98;;;9.10;;
10902;SDS011;5504;47.312;11.060;2023-08-24T06:16:19;12.55;;;9.35;;
10902;SDS011;5504;47.312;11.060;2023-08-24T06:18:45;11.65;;;8.90;;
10902;SDS011;5504;47.312;11.060;2023-08-24T06:21:11;14.15;;;9.43;;
10902;SDS011;5504;47.312;11.060;2023-08-24T06:23:38;11.15;;;9.02;;
10902;SDS011;5504;47.312;11.060;2023-08-24T06:26:04;10.45;;;8.43;;
10902;SDS011;5504;47.312;11.060;2023-08-24T06:28:30;12.73;;;8.20;;
10902;SDS011;5504;47.312;11.060;2023-08-24T06:30:56;13.00;;;7.93;;
10902;SDS011;5504;47.312;11.060;2023-08-24T06:33:26;13.93;;;8.75;;
10902;SDS011;5504;47.312;11.060;2023-08-24T06:35:56;12.65;;;8.32;;
10902;SDS011;5504;47.312;11.060;2023-08-24T06:38:22;10.27;;;7.80;;
10902;SDS011;5504;47.312;11.060;2023-08-24T06:40:48;13.27;;;8.15;;
10902;SDS011;5504;47.312;11.060;2023-08-24T06:43:13;10.18;;;8.10;;
10902;SDS011;5504;47.312;11.060;2023-08-24T06:45:39;12.88;;;7.95;;
10902;SDS011;5504;47.312;11.060;2023-08-24T06:48:05;12.45;;;8.20;;
10902;SDS011;5504;47.312;11.060;2023-08-24T06:50:32;12.75;;;8.30;;
10902;SDS011;5504;47.312;11.060;2023-08-24T06:53:02;11.38;;;8.57;;
10902;SDS011;5504;47.312;11.060;2023-08-24T06:55:30;10.98;;;8.32;;
10902;SDS011;5504;47.312;11.060;2023-08-24T06:57:56;11.25;;;8.20;;
10902;SDS011;5504;47.312;11.060;2023-08-24T07:00:22;11.90;;;8.18;;
10902;SDS011;5504;47.312;11.060;2023-08-24T07:02:49;9.73;;;7.80;;
10902;SDS011;5504;47.312;11.060;2023-08-24T07:05:15;12.77;;;8.27;;
10902;SDS011;5504;47.312;11.060;2023-08-24T07:07:45;11.23;;;7.60;;
10902;SDS011;5504;47.312;11.060;2023-08-24T07:10:12;10.30;;;7.90;;
10902;SDS011;5504;47.312;11.060;2023-08-24T07:12:38;12.68;;;7.88;;
10902;SDS011;5504;47.312;11.060;2023-08-24T07:15:06;11.07;;;7.75;;
10902;SDS011;5504;47.312;11.060;2023-08-24T07:17:32;10.48;;;7.30;;
10902;SDS011;5504;47.312;11.060;2023-08-24T07:19:57;9.55;;;7.65;;
10902;SDS011;5504;47.312;11.060;2023-08-24T07:22:23;9.55;;;7.20;;
10902;SDS011;5504;47.312;11.060;2023-08-24T07:24:51;10.05;;;6.88;;
10902;SDS011;5504;47.312;11.060;2023-08-24T07:27:17;8.85;;;6.90;;
10902;SDS011;5504;47.312;11.060;2023-08-24T07:29:43;9.13;;;6.50;;
10902;SDS011;5504;47.312;11.060;2023-08-24T07:32:09;15.05;;;7.80;;
10902;SDS011;5504;47.312;11.060;2023-08-24T07:34:35;12.48;;;7.95;;
10902;SDS011;5504;47.312;11.060;2023-08-24T07:37:01;11.77;;;7.03;;
10902;SDS011;5504;47.312;11.060;2023-08-24T07:39:26;12.63;;;6.65;;
10902;SDS011;5504;47.312;11.060;2023-08-24T07:41:52;11.75;;;7.63;;
10902;SDS011;5504;47.312;11.060;2023-08-24T07:44:18;12.85;;;7.35;;
10902;SDS011;5504;47.312;11.060;2023-08-24T07:46:44;9.10;;;6.90;;
10902;SDS011;5504;47.312;11.060;2023-08-24T07:49:09;11.70;;;6.75;;
10902;SDS011;5504;47.312;11.060;2023-08-24T07:51:35;12.25;;;7.35;;
10902;SDS011;5504;47.312;11.060;2023-08-24T07:54:01;11.88;;;7.68;;
10902;SDS011;5504;47.312;11.060;2023-08-24T07:56:31;11.43;;;7.05;;
10902;SDS011;5504;47.312;11.060;2023-08-24T07:58:58;12.07;;;7.03;;
10902;SDS011;5504;47.312;11.060;2023-08-24T08:01:23;9.45;;;7.10;;
10902;SDS011;5504;47.312;11.060;2023-08-24T08:03:49;16.02;;;7.43;;
10902;SDS011;5504;47.312;11.060;2023-08-24T08:06:15;12.60;;;6.65;;
10902;SDS011;5504;47.312;11.060;2023-08-24T08:08:40;12.15;;;7.70;;
10902;SDS011;5504;47.312;11.060;2023-08-24T08:11:06;12.90;;;6.95;;
10902;SDS011;5504;47.312;11.060;2023-08-24T08:13:32;11.27;;;6.85;;
10902;SDS011;5504;47.312;11.060;2023-08-24T08:16:04;14.43;;;7.05;;
10902;SDS011;5504;47.312;11.060;2023-08-24T08:18:34;11.50;;;6.78;;
10902;SDS011;5504;47.312;11.060;2023-08-24T08:21:01;11.88;;;6.88;;
10902;SDS011;5504;47.312;11.060;2023-08-24T08:23:33;11.45;;;6.70;;
10902;SDS011;5504;47.312;11.060;2023-08-24T08:25:58;10.68;;;6.90;;
10902;SDS011;5504;47.312;11.060;2023-08-24T08:28:24;8.88;;;6.70;;
10902;SDS011;5504;47.312;11.060;2023-08-24T08:30:50;10.10;;;6.93;;
10902;SDS011;5504;47.312;11.060;2023-08-24T08:33:16;12.30;;;6.25;;
10902;SDS011;5504;47.312;11.060;2023-08-24T08:35:42;12.07;;;6.00;;
10902;SDS011;5504;47.312;11.060;2023-08-24T08:38:08;10.90;;;6.20;;
10902;SDS011;5504;47.312;11.060;2023-08-24T08:40:36;11.02;;;6.35;;
10902;SDS011;5504;47.312;11.060;2023-08-24T08:43:02;12.82;;;6.43;;
10902;SDS011;5504;47.312;11.060;2023-08-24T08:45:28;11.32;;;6.53;;
10902;SDS011;5504;47.312;11.060;2023-08-24T08:47:57;11.25;;;6.18;;
10902;SDS011;5504;47.312;11.060;2023-08-24T08:50:24;13.50;;;6.35;;
10902;SDS011;5504;47.312;11.060;2023-08-24T08:52:51;9.73;;;6.13;;
10902;SDS011;5504;47.312;11.060;2023-08-24T08:55:17;10.77;;;6.32;;
10902;SDS011;5504;47.312;11.060;2023-08-24T08:57:43;10.70;;;6.55;;
10902;SDS011;5504;47.312;11.060;2023-08-24T09:00:11;11.10;;;6.20;;
10902;SDS011;5504;47.312;11.060;2023-08-24T09:02:41;11.63;;;6.53;;
10902;SDS011;5504;47.312;11.060;2023-08-24T09:05:09;10.40;;;6.43;;
10902;SDS011;5504;47.312;11.060;2023-08-24T09:07:35;12.38;;;6.45;;
10902;SDS011;5504;47.312;11.060;2023-08-24T09:10:04;12.68;;;6.45;;
10902;SDS011;5504;47.312;11.060;2023-08-24T09:12:31;11.40;;;6.03;;
10902;SDS011;5504;47.312;11.060;2023-08-24T09:15:03;10.63;;;6.00;;
10902;SDS011;5504;47.312;11.060;2023-08-24T09:17:31;11.57;;;6.28;;
10902;SDS011;5504;47.312;11.060;2023-08-24T09:19:58;11.38;;;5.88;;
10902;SDS011;5504;47.312;11.060;2023-08-24T09:22:25;8.38;;;5.65;;
10902;SDS011;5504;47.312;11.060;2023-08-24T09:24:51;11.82;;;6.10;;
10902;SDS011;5504;47.312;11.060;2023-08-24T09:27:17;13.38;;;6.18;;
10902;SDS011;5504;47.312;11.060;2023-08-24T09:29:48;9.13;;;6.20;;
10902;SDS011;5504;47.312;11.060;2023-08-24T09:32:21;11.60;;;5.88;;
10902;SDS011;5504;47.312;11.060;2023-08-24T09:34:48;12.75;;;6.68;;
10902;SDS011;5504;47.312;11.060;2023-08-24T09:37:15;11.15;;;6.05;;
10902;SDS011;5504;47.312;11.060;2023-08-24T09:39:41;12.88;;;6.75;;
10902;SDS011;5504;47.312;11.060;2023-08-24T09:42:08;12.98;;;6.25;;
10902;SDS011;5504;47.312;11.060;2023-08-24T09:44:33;9.23;;;6.10;;
10902;SDS011;5504;47.312;11.060;2023-08-24T09:47:01;11.48;;;5.93;;
10902;SDS011;5504;47.312;11.060;2023-08-24T09:49:28;10.35;;;5.90;;
10902;SDS011;5504;47.312;11.060;2023-08-24T09:51:56;11.63;;;5.60;;
10902;SDS011;5504;47.312;11.060;2023-08-24T09:54:25;10.55;;;5.70;;
10902;SDS011;5504;47.312;11.060;2023-08-24T09:56:52;11.77;;;6.05;;
10902;SDS011;5504;47.312;11.060;2023-08-24T09:59:20;9.23;;;5.20;;
10902;SDS011;5504;47.312;11.060;2023-08-24T10:01:49;11.07;;;4.82;;
10902;SDS011;5504;47.312;11.060;2023-08-24T10:04:34;9.73;;;5.30;;
10902;SDS011;5504;47.312;11.060;2023-08-24T10:07:05;13.65;;;5.38;;
10902;SDS011;5504;47.312;11.060;2023-08-24T10:09:38;13.90;;;5.60;;
10902;SDS011;5504;47.312;11.060;2023-08-24T10:12:10;10.50;;;5.38;;
10902;SDS011;5504;47.312;11.060;2023-08-24T10:17:18;12.82;;;6.13;;
10902;SDS011;5504;47.312;11.060;2023-08-24T10:19:45;11.48;;;6.13;;
10902;SDS011;5504;47.312;11.060;2023-08-24T10:22:12;16.30;;;6.30;;
10902;SDS011;5504;47.312;11.060;2023-08-24T10:24:38;11.35;;;6.40;;
10902;SDS011;5504;47.312;11.060;2023-08-24T10:27:04;12.27;;;5.72;;
10902;SDS011;5504;47.312;11.060;2023-08-24T10:29:33;10.27;;;5.63;;
10902;SDS011;5504;47.312;11.060;2023-08-24T10:31:59;11.18;;;5.70;;
10902;SDS011;5504;47.312;11.060;2023-08-24T10:34:26;10.07;;;5.82;;
10902;SDS011;5504;47.312;11.060;2023-08-24T10:36:52;11.43;;;5.75;;
10902;SDS011;5504;47.312;11.060;2023-08-24T10:39:18;11.05;;;5.50;;
10902;SDS011;5504;47.312;11.060;2023-08-24T10:41:52;12.15;;;5.70;;
10902;SDS011;5504;47.312;11.060;2023-08-24T10:44:24;9.60;;;5.68;;
10902;SDS011;5504;47.312;11.060;2023-08-24T10:49:38;12.13;;;5.22;;
10902;SDS011;5504;47.312;11.060;2023-08-24T10:55:04;8.48;;;5.38;;
10902;SDS011;5504;47.312;11.060;2023-08-24T10:57:47;10.45;;;5.60;;
10902;SDS011;5504;47.312;11.060;2023-08-24T11:00:21;9.85;;;5.63;;
10902;SDS011;5504;47.312;11.060;2023-08-24T11:02:50;10.32;;;5.22;;
10902;SDS011;5504;47.312;11.060;2023-08-24T11:05:23;9.65;;;4.70;;
10902;SDS011;5504;47.312;11.060;2023-08-24T11:08:03;10.10;;;5.47;;
10902;SDS011;5504;47.312;11.060;2023-08-24T11:13:09;11.23;;;5.40;;
10902;SDS011;5504;47.312;11.060;2023-08-24T11:18:13;14.82;;;5.43;;
10902;SDS011;5504;47.312;11.060;2023-08-24T11:21:10;12.57;;;5.07;;
10902;SDS011;5504;47.312;11.060;2023-08-24T11:23:37;8.52;;;4.75;;
10902;SDS011;5504;47.312;11.060;2023-08-24T11:26:03;10.32;;;5.25;;
10902;SDS011;5504;47.312;11.060;2023-08-24T11:28:29;12.23;;;4.95;;
10902;SDS011;5504;47.312;11.060;2023-08-24T11:30:57;14.02;;;5.55;;
10902;SDS011;5504;47.312;11.060;2023-08-24T11:33:33;10.65;;;5.65;;
10902;SDS011;5504;47.312;11.060;2023-08-24T11:35:59;12.15;;;5.30;;
10902;SDS011;5504;47.312;11.060;2023-08-24T11:38:40;13.38;;;5.60;;
10902;SDS011;5504;47.312;11.060;2023-08-24T11:43:39;12.32;;;5.05;;
10902;SDS011;5504;47.312;11.060;2023-08-24T11:46:05;10.23;;;5.20;;
10902;SDS011;5504;47.312;11.060;2023-08-24T11:48:31;8.35;;;5.18;;
10902;SDS011;5504;47.312;11.060;2023-08-24T11:50:57;13.73;;;5.80;;
10902;SDS011;5504;47.312;11.060;2023-08-24T11:53:23;9.95;;;5.35;;
10902;SDS011;5504;47.312;11.060;2023-08-24T11:55:52;9.93;;;5.45;;
10902;SDS011;5504;47.312;11.060;2023-08-24T11:58:19;10.15;;;5.47;;
10902;SDS011;5504;47.312;11.060;2023-08-24T12:00:45;16.10;;;5.53;;
10902;SDS011;5504;47.312;11.060;2023-08-24T12:03:12;9.18;;;5.30;;
10902;SDS011;5504;47.312;11.060;2023-08-24T12:05:38;9.50;;;4.95;;
10902;SDS011;5504;47.312;11.060;2023-08-24T12:08:04;14.32;;;5.57;;
10902;SDS011;5504;47.312;11.060;2023-08-24T12:10:30;12.75;;;5.22;;
10902;SDS011;5504;47.312;11.060;2023-08-24T12:13:03;11.30;;;4.72;;
10902;SDS011;5504;47.312;11.060;2023-08-24T12:15:30;10.88;;;4.82;;
10902;SDS011;5504;47.312;11.060;2023-08-24T12:18:06;16.77;;;5.07;;
10902;SDS011;5504;47.312;11.060;2023-08-24T12:20:33;11.38;;;4.93;;
10902;SDS011;5504;47.312;11.060;2023-08-24T12:22:58;11.82;;;4.70;;
10902;SDS011;5504;47.312;11.060;2023-08-24T12:25:25;12.02;;;4.80;;
10902;SDS011;5504;47.312;11.060;2023-08-24T12:27:51;9.60;;;5.00;;
10902;SDS011;5504;47.312;11.060;2023-08-24T12:30:18;11.77;;;5.03;;
10902;SDS011;5504;47.312;11.060;2023-08-24T12:32:45;11.93;;;5.03;;
10902;SDS011;5504;47.312;11.060;2023-08-24T12:35:13;12.85;;;4.80;;
10902;SDS011;5504;47.312;11.060;2023-08-24T12:37:39;14.00;;;4.50;;
10902;SDS011;5504;47.312;11.060;2023-08-24T12:40:06;16.02;;;4.85;;
10902;SDS011;5504;47.312;11.060;2023-08-24T12:42:32;17.15;;;4.95;;
10902;SDS011;5504;47.312;11.060;2023-08-24T12:44:59;11.23;;;4.20;;
10902;SDS011;5504;47.312;11.060;2023-08-24T12:47:24;10.18;;;4.35;;
10902;SDS011;5504;47.312;11.060;2023-08-24T12:49:50;10.55;;;4.43;;
10902;SDS011;5504;47.312;11.060;2023-08-24T12:52:17;12.48;;;4.50;;
10902;SDS011;5504;47.312;11.060;2023-08-24T12:54:43;10.43;;;4.30;;
10902;SDS011;5504;47.312;11.060;2023-08-24T12:57:09;8.63;;;4.38;;
10902;SDS011;5504;47.312;11.060;2023-08-24T12:59:34;10.65;;;4.65;;
10902;SDS011;5504;47.312;11.060;2023-08-24T13:02:00;13.40;;;5.00;;
10902;SDS011;5504;47.312;11.060;2023-08-24T13:04:26;14.70;;;4.80;;
10902;SDS011;5504;47.312;11.060;2023-08-24T13:06:54;10.18;;;3.97;;
10902;SDS011;5504;47.312;11.060;2023-08-24T13:09:20;10.95;;;4.53;;
10902;SDS011;5504;47.312;11.060;2023-08-24T13:11:46;12.30;;;4.63;;
10902;SDS011;5504;47.312;11.060;2023-08-24T13:14:13;13.25;;;4.88;;
10902;SDS011;5504;47.312;11.060;2023-08-24T13:16:39;11.55;;;4.72;;
10902;SDS011;5504;47.312;11.060;2023-08-24T13:19:04;11.50;;;4.57;;
10902;SDS011;5504;47.312;11.060;2023-08-24T13:21:30;12.32;;;5.00;;
10902;SDS011;5504;47.312;11.060;2023-08-24T13:23:56;13.23;;;5.57;;
10902;SDS011;5504;47.312;11.060;2023-08-24T13:26:22;11.23;;;4.93;;
10902;SDS011;5504;47.312;11.060;2023-08-24T13:28:48;9.98;;;4.93;;
10902;SDS011;5504;47.312;11.060;2023-08-24T13:31:14;12.75;;;4.68;;
10902;SDS011;5504;47.312;11.060;2023-08-24T13:33:40;13.90;;;5.30;;
10902;SDS011;5504;47.312;11.060;2023-08-24T13:36:06;11.75;;;4.95;;
10902;SDS011;5504;47.312;11.060;2023-08-24T13:38:32;13.50;;;5.32;;
10902;SDS011;5504;47.312;11.060;2023-08-24T13:40:58;13.82;;;5.45;;
10902;SDS011;5504;47.312;11.060;2023-08-24T13:43:24;11.85;;;5.00;;
10902;SDS011;5504;47.312;11.060;2023-08-24T13:45:49;14.30;;;5.20;;
10902;SDS011;5504;47.312;11.060;2023-08-24T13:48:16;11.68;;;5.50;;
10902;SDS011;5504;47.312;11.060;2023-08-24T13:50:41;14.23;;;5.78;;
10902;SDS011;5504;47.312;11.060;2023-08-24T13:53:14;16.98;;;5.85;;
10902;SDS011;5504;47.312;11.060;2023-08-24T13:55:40;12.18;;;5.10;;
10902;SDS011;5504;47.312;11.060;2023-08-24T13:58:05;14.82;;;5.57;;
10902;SDS011;5504;47.312;11.060;2023-08-24T14:00:31;10.43;;;4.90;;
10902;SDS011;5504;47.312;11.060;2023-08-24T14:02:57;14.68;;;5.47;;
10902;SDS011;5504;47.312;11.060;2023-08-24T14:05:22;8.57;;;5.15;;
10902;SDS011;5504;47.312;11.060;2023-08-24T14:07:48;11.45;;;5.22;;
10902;SDS011;5504;47.312;11.060;2023-08-24T14:10:14;14.60;;;5.53;;
10902;SDS011;5504;47.312;11.060;2023-08-24T14:12:40;15.52;;;6.10;;
10902;SDS011;5504;47.312;11.060;2023-08-24T14:15:06;9.52;;;5.63;;
10902;SDS011;5504;47.312;11.060;2023-08-24T14:17:32;13.93;;;5.82;;
10902;SDS011;5504;47.312;11.060;2023-08-24T14:19:58;14.93;;;6.07;;
10902;SDS011;5504;47.312;11.060;2023-08-24T14:22:24;13.93;;;6.25;;
10902;SDS011;5504;47.312;11.060;2023-08-24T14:24:50;14.63;;;6.13;;
10902;SDS011;5504;47.312;11.060;2023-08-24T14:27:16;11.15;;;5.95;;
10902;SDS011;5504;47.312;11.060;2023-08-24T14:29:42;13.77;;;6.20;;
10902;SDS011;5504;47.312;11.060;2023-08-24T14:32:07;11.40;;;6.32;;
10902;SDS011;5504;47.312;11.060;2023-08-24T14:34:33;11.57;;;6.78;;
10902;SDS011;5504;47.312;11.060;2023-08-24T14:36:59;13.63;;;6.72;;
10902;SDS011;5504;47.312;11.060;2023-08-24T14:39:25;15.15;;;6.45;;
10902;SDS011;5504;47.312;11.060;2023-08-24T14:41:50;12.98;;;6.90;;
10902;SDS011;5504;47.312;11.060;2023-08-24T14:44:16;12.00;;;6.38;;
10902;SDS011;5504;47.312;11.060;2023-08-24T14:46:41;13.75;;;6.25;;
10902;SDS011;5504;47.312;11.060;2023-08-24T14:49:07;9.18;;;6.30;;
10902;SDS011;5504;47.312;11.060;2023-08-24T14:51:33;12.68;;;6.82;;
10902;SDS011;5504;47.312;11.060;2023-08-24T14:53:59;14.25;;;6.70;;
10902;SDS011;5504;47.312;11.060;2023-08-24T14:56:24;11.75;;;7.15;;